sensor_id;sensor_type;location;lat;lon;timestamp;pressure;altitude;pressure_sealevel;temperature;humidity
54503;BME280;40411;50.090;21.954;2022-07-05T00:00:21;153183.94;;;16.46;100.00
54503;BME280;40411;50.090;21.954;2022-07-05T00:03:02;153176.25;;;16.43;100.00
54503;BME280;40411;50.090;21.954;2022-07-05T00:05:29;153155.69;;;16.35;100.00
54503;BME280;40411;50.090;21.954;2022-07-05T00:07:54;153153.13;;;16.34;100.00
54503;BME280;40411;50.090;21.954;2022-07-05T00:10:20;153158.28;;;16.36;100.00
54503;BME280;40411;50.090;21.954;2022-07-05T00:12:46;153171.13;;;16.41;100.00
54503;BME280;40411;50.090;21.954;2022-07-05T00:15:12;153160.84;;;16.37;100.00
54503;BME280;40411;50.090;21.954;2022-07-05T00:17:38;153163.44;;;16.38;100.00
54503;BME280;40411;50.090;21.954;2022-07-05T00:20:04;153186.53;;;16.47;100.00
54503;BME280;40411;50.090;21.954;2022-07-05T00:22:30;153199.41;;;16.52;100.00
54503;BME280;40411;50.090;21.954;2022-07-05T00:24:56;153200.69;;;16.53;100.00
54503;BME280;40411;50.090;21.954;2022-07-05T00:27:22;153199.41;;;16.52;100.00
54503;BME280;40411;50.090;21.954;2022-07-05T00:29:48;153189.09;;;16.48;100.00
54503;BME280;40411;50.090;21.954;2022-07-05T00:32:14;153194.25;;;16.50;100.00
54503;BME280;40411;50.090;21.954;2022-07-05T00:34:40;153219.97;;;16.61;100.00
54503;BME280;40411;50.090;21.954;2022-07-05T00:37:06;153243.06;;;16.70;100.00
54503;BME280;40411;50.090;21.954;2022-07-05T00:39:32;153248.22;;;16.72;100.00
54503;BME280;40411;50.090;21.954;2022-07-05T00:41:58;153243.06;;;16.70;100.00
54503;BME280;40411;50.090;21.954;2022-07-05T00:44:35;153250.78;;;16.73;100.00
54503;BME280;40411;50.090;21.954;2022-07-05T00:47:03;153263.69;;;16.78;100.00
54503;BME280;40411;50.090;21.954;2022-07-05T00:49:30;153276.53;;;16.83;100.00
54503;BME280;40411;50.090;21.954;2022-07-05T00:51:57;153281.66;;;16.85;100.00
54503;BME280;40411;50.090;21.954;2022-07-05T00:54:24;153284.25;;;16.86;100.00
54503;BME280;40411;50.090;21.954;2022-07-05T00:56:50;153289.41;;;16.88;100.00
54503;BME280;40411;50.090;21.954;2022-07-05T00:59:17;153297.09;;;16.91;100.00
54503;BME280;40411;50.090;21.954;2022-07-05T01:01:43;153315.06;;;16.98;100.00
54503;BME280;40411;50.090;21.954;2022-07-05T01:04:10;153312.50;;;16.97;100.00
54503;BME280;40411;50.090;21.954;2022-07-05T01:06:38;153282.97;;;16.86;100.00
54503;BME280;40411;50.090;21.954;2022-07-05T01:09:05;153298.38;;;16.92;100.00
54503;BME280;40411;50.090;21.954;2022-07-05T01:11:31;153322.78;;;17.02;100.00
54503;BME280;40411;50.090;21.954;2022-07-05T01:13:59;153351.06;;;17.13;100.00
54503;BME280;40411;50.090;21.954;2022-07-05T01:16:26;153372.88;;;17.22;100.00
54503;BME280;40411;50.090;21.954;2022-07-05T01:18:52;153392.19;;;17.29;100.00
54503;BME280;40411;50.090;21.954;2022-07-05T01:21:19;153408.94;;;17.36;100.00
54503;BME280;40411;50.090;21.954;2022-07-05T01:23:48;153424.34;;;17.42;100.00
54503;BME280;40411;50.090;21.954;2022-07-05T01:26:15;153430.78;;;17.45;100.00
54503;BME280;40411;50.090;21.954;2022-07-05T01:28:41;153428.16;;;17.43;100.00
54503;BME280;40411;50.090;21.954;2022-07-05T01:31:07;153421.75;;;17.41;100.00
54503;BME280;40411;50.090;21.954;2022-07-05T01:33:33;153444.91;;;17.50;100.00
54503;BME280;40411;50.090;21.954;2022-07-05T01:35:59;153461.59;;;17.57;100.00
54503;BME280;40411;50.090;21.954;2022-07-05T01:38:25;153474.47;;;17.62;100.00
54503;BME280;40411;50.090;21.954;2022-07-05T01:40:51;153487.34;;;17.67;100.00
54503;BME280;40411;50.090;21.954;2022-07-05T01:43:19;153500.19;;;17.72;100.00
54503;BME280;40411;50.090;21.954;2022-07-05T01:45:47;153488.63;;;17.68;100.00
54503;BME280;40411;50.090;21.954;2022-07-05T01:48:15;153474.47;;;17.62;100.00
54503;BME280;40411;50.090;21.954;2022-07-05T01:50:46;153450.03;;;17.52;100.00
54503;BME280;40411;50.090;21.954;2022-07-05T01:53:32;153439.75;;;17.48;100.00
54503;BME280;40411;50.090;21.954;2022-07-05T01:56:00;153453.91;;;17.54;100.00
54503;BME280;40411;50.090;21.954;2022-07-05T01:58:27;153487.34;;;17.67;100.00
54503;BME280;40411;50.090;21.954;2022-07-05T02:00:55;153497.59;;;17.71;100.00
54503;BME280;40411;50.090;21.954;2022-07-05T02:03:22;153497.59;;;17.71;100.00
54503;BME280;40411;50.090;21.954;2022-07-05T02:05:48;153495.03;;;17.70;100.00
54503;BME280;40411;50.090;21.954;2022-07-05T02:08:19;153488.63;;;17.68;100.00
54503;BME280;40411;50.090;21.954;2022-07-05T02:10:45;153487.34;;;17.67;100.00
54503;BME280;40411;50.090;21.954;2022-07-05T02:13:12;153464.22;;;17.58;100.00
54503;BME280;40411;50.090;21.954;2022-07-05T02:15:40;153443.63;;;17.50;100.00
54503;BME280;40411;50.090;21.954;2022-07-05T02:18:08;153441.03;;;17.49;100.00
54503;BME280;40411;50.090;21.954;2022-07-05T02:20:38;153419.19;;;17.40;100.00
54503;BME280;40411;50.090;21.954;2022-07-05T02:23:04;153402.50;;;17.33;100.00
54503;BME280;40411;50.090;21.954;2022-07-05T02:25:30;153371.63;;;17.21;100.00
54503;BME280;40411;50.090;21.954;2022-07-05T02:28:01;153345.94;;;17.11;100.00
54503;BME280;40411;50.090;21.954;2022-07-05T02:30:27;153299.66;;;16.92;100.00
54503;BME280;40411;50.090;21.954;2022-07-05T02:32:54;153266.22;;;16.79;100.00
54503;BME280;40411;50.090;21.954;2022-07-05T02:35:20;153249.50;;;16.72;100.00
54503;BME280;40411;50.090;21.954;2022-07-05T02:37:46;153240.53;;;16.69;100.00
54503;BME280;40411;50.090;21.954;2022-07-05T02:40:13;153240.53;;;16.69;100.00
54503;BME280;40411;50.090;21.954;2022-07-05T02:42:43;153261.13;;;16.77;100.00
54503;BME280;40411;50.090;21.954;2022-07-05T02:45:13;153258.47;;;16.76;100.00
54503;BME280;40411;50.090;21.954;2022-07-05T02:47:40;153239.19;;;16.68;100.00
54503;BME280;40411;50.090;21.954;2022-07-05T02:50:08;153168.53;;;16.40;100.00
54503;BME280;40411;50.090;21.954;2022-07-05T02:52:36;153153.13;;;16.34;100.00
54503;BME280;40411;50.090;21.954;2022-07-05T02:55:03;153155.69;;;16.35;100.00
54503;BME280;40411;50.090;21.954;2022-07-05T02:57:30;153155.69;;;16.35;100.00
54503;BME280;40411;50.090;21.954;2022-07-05T02:59:58;153167.25;;;16.40;100.00
54503;BME280;40411;50.090;21.954;2022-07-05T03:02:34;153190.38;;;16.49;100.00
54503;BME280;40411;50.090;21.954;2022-07-05T03:05:01;153245.63;;;16.71;100.00
54503;BME280;40411;50.090;21.954;2022-07-05T03:07:27;153285.53;;;16.87;100.00
54503;BME280;40411;50.090;21.954;2022-07-05T03:09:54;153309.91;;;16.96;100.00
54503;BME280;40411;50.090;21.954;2022-07-05T03:12:21;153336.91;;;17.07;100.00
54503;BME280;40411;50.090;21.954;2022-07-05T03:14:47;153379.31;;;17.24;100.00
54503;BME280;40411;50.090;21.954;2022-07-05T03:17:14;153401.22;;;17.33;100.00
54503;BME280;40411;50.090;21.954;2022-07-05T03:19:40;153437.19;;;17.47;100.00
54503;BME280;40411;50.090;21.954;2022-07-05T03:22:07;153448.75;;;17.52;100.00
54503;BME280;40411;50.090;21.954;2022-07-05T03:24:36;153483.47;;;17.65;100.00
54503;BME280;40411;50.090;21.954;2022-07-05T03:27:03;153497.59;;;17.71;100.00
54503;BME280;40411;50.090;21.954;2022-07-05T03:29:30;153515.66;;;17.78;100.00
54503;BME280;40411;50.090;21.954;2022-07-05T03:31:56;153546.50;;;17.91;100.00
54503;BME280;40411;50.090;21.954;2022-07-05T03:34:24;153579.97;;;18.04;100.00
54503;BME280;40411;50.090;21.954;2022-07-05T03:36:51;153558.09;;;17.95;100.00
54503;BME280;40411;50.090;21.954;2022-07-05T03:39:18;153592.81;;;18.09;100.00
54503;BME280;40411;50.090;21.954;2022-07-05T03:41:45;153612.13;;;18.17;100.00
54503;BME280;40411;50.090;21.954;2022-07-05T03:44:15;153654.56;;;18.34;100.00
54503;BME280;40411;50.090;21.954;2022-07-05T03:46:41;153672.53;;;18.41;100.00
54503;BME280;40411;50.090;21.954;2022-07-05T03:49:07;153675.16;;;18.42;100.00
54503;BME280;40411;50.090;21.954;2022-07-05T03:51:33;153695.72;;;18.50;100.00
54503;BME280;40411;50.090;21.954;2022-07-05T03:54:01;153709.88;;;18.56;100.00
54503;BME280;40411;50.090;21.954;2022-07-05T03:56:27;153680.25;;;18.44;100.00
54503;BME280;40411;50.090;21.954;2022-07-05T03:58:58;153662.28;;;18.37;100.00
54503;BME280;40411;50.090;21.954;2022-07-05T04:01:25;153672.53;;;18.41;100.00
54503;BME280;40411;50.090;21.954;2022-07-05T04:03:52;153693.13;;;18.49;100.00
54503;BME280;40411;50.090;21.954;2022-07-05T04:06:18;153682.88;;;18.45;100.00
54503;BME280;40411;50.090;21.954;2022-07-05T04:08:45;153707.28;;;18.54;100.00
54503;BME280;40411;50.090;21.954;2022-07-05T04:11:12;153694.41;;;18.49;100.00
54503;BME280;40411;50.090;21.954;2022-07-05T04:13:40;153753.59;;;18.73;100.00
54503;BME280;40411;50.090;21.954;2022-07-05T04:16:07;153770.38;;;18.80;100.00
54503;BME280;40411;50.090;21.954;2022-07-05T04:18:32;153820.53;;;19.00;100.00
54503;BME280;40411;50.090;21.954;2022-07-05T04:20:59;153847.56;;;19.10;100.00
54503;BME280;40411;50.090;21.954;2022-07-05T04:23:25;153872.03;;;19.20;100.00
54503;BME280;40411;50.090;21.954;2022-07-05T04:25:51;153882.31;;;19.24;100.00
54503;BME280;40411;50.090;21.954;2022-07-05T04:28:31;153901.63;;;19.32;100.00
54503;BME280;40411;50.090;21.954;2022-07-05T04:30:58;153900.34;;;19.31;100.00
54503;BME280;40411;50.090;21.954;2022-07-05T04:33:26;153924.78;;;19.41;100.00
54503;BME280;40411;50.090;21.954;2022-07-05T04:35:55;153976.31;;;19.61;100.00
54503;BME280;40411;50.090;21.954;2022-07-05T04:38:21;154043.25;;;19.88;100.00
54503;BME280;40411;50.090;21.954;2022-07-05T04:40:47;154135.97;;;20.25;100.00
54503;BME280;40411;50.090;21.954;2022-07-05T04:43:13;154269.94;;;20.78;100.00
54503;BME280;40411;50.090;21.954;2022-07-05T04:45:39;154385.91;;;21.24;100.00
54503;BME280;40411;50.090;21.954;2022-07-05T04:48:05;154480.00;;;21.61;100.00
54503;BME280;40411;50.090;21.954;2022-07-05T04:50:33;154579.28;;;22.01;100.00
54503;BME280;40411;50.090;21.954;2022-07-05T04:53:00;154541.88;;;21.86;100.00
54503;BME280;40411;50.090;21.954;2022-07-05T04:55:25;154587.03;;;22.04;100.00
54503;BME280;40411;50.090;21.954;2022-07-05T04:57:51;154594.75;;;22.07;100.00
54503;BME280;40411;50.090;21.954;2022-07-05T05:00:17;154607.66;;;22.12;100.00
54503;BME280;40411;50.090;21.954;2022-07-05T05:02:43;154585.69;;;22.03;100.00
54503;BME280;40411;50.090;21.954;2022-07-05T05:05:09;154580.56;;;22.01;100.00
54503;BME280;40411;50.090;21.954;2022-07-05T05:07:35;154571.50;;;21.98;100.00
54503;BME280;40411;50.090;21.954;2022-07-05T05:10:04;154589.59;;;22.05;100.00
54503;BME280;40411;50.090;21.954;2022-07-05T05:12:31;154601.19;;;22.09;100.00
54503;BME280;40411;50.090;21.954;2022-07-05T05:14:57;154669.53;;;22.37;100.00
54503;BME280;40411;50.090;21.954;2022-07-05T05:17:22;154697.91;;;22.48;100.00
54503;BME280;40411;50.090;21.954;2022-07-05T05:19:48;154727.59;;;22.60;100.00
54503;BME280;40411;50.090;21.954;2022-07-05T05:22:14;154788.19;;;22.84;100.00
54503;BME280;40411;50.090;21.954;2022-07-05T05:24:40;154839.84;;;23.04;100.00
54503;BME280;40411;50.090;21.954;2022-07-05T05:27:06;154887.53;;;23.23;100.00
54503;BME280;40411;50.090;21.954;2022-07-05T05:29:31;154886.25;;;23.23;98.50
54503;BME280;40411;50.090;21.954;2022-07-05T05:31:57;154977.84;;;23.59;99.03
54503;BME280;40411;50.090;21.954;2022-07-05T05:34:23;154967.53;;;23.55;98.46
54503;BME280;40411;50.090;21.954;2022-07-05T05:36:49;154964.94;;;23.54;98.41
54503;BME280;40411;50.090;21.954;2022-07-05T05:39:15;155011.44;;;23.72;99.59
54503;BME280;40411;50.090;21.954;2022-07-05T05:41:41;155072.09;;;23.96;97.09
54503;BME280;40411;50.090;21.954;2022-07-05T05:44:07;155112.06;;;24.12;95.91
54503;BME280;40411;50.090;21.954;2022-07-05T05:46:32;155100.50;;;24.07;94.64
54503;BME280;40411;50.090;21.954;2022-07-05T05:48:58;155141.78;;;24.24;95.59
54503;BME280;40411;50.090;21.954;2022-07-05T05:51:24;155135.34;;;24.21;92.60
54503;BME280;40411;50.090;21.954;2022-07-05T05:53:50;155149.53;;;24.27;93.76
54503;BME280;40411;50.090;21.954;2022-07-05T05:56:16;155198.63;;;24.46;92.07
54503;BME280;40411;50.090;21.954;2022-07-05T05:58:42;155212.84;;;24.52;89.03
54503;BME280;40411;50.090;21.954;2022-07-05T06:01:08;155279.94;;;24.79;91.75
54503;BME280;40411;50.090;21.954;2022-07-05T06:03:34;155348.38;;;25.06;89.75
54503;BME280;40411;50.090;21.954;2022-07-05T06:06:00;155400.06;;;25.26;86.02
54503;BME280;40411;50.090;21.954;2022-07-05T06:08:26;155402.66;;;25.27;85.92
54503;BME280;40411;50.090;21.954;2022-07-05T06:10:52;155481.44;;;25.58;87.29
54503;BME280;40411;50.090;21.954;2022-07-05T06:13:18;155570.63;;;25.94;84.82
54503;BME280;40411;50.090;21.954;2022-07-05T06:15:44;155672.66;;;26.34;83.41
54503;BME280;40411;50.090;21.954;2022-07-05T06:18:11;155835.53;;;26.99;79.77
54503;BME280;40411;50.090;21.954;2022-07-05T06:20:38;155963.53;;;27.49;77.58
54503;BME280;40411;50.090;21.954;2022-07-05T06:23:05;156170.50;;;28.31;75.30
54503;BME280;40411;50.090;21.954;2022-07-05T06:25:32;156375.00;;;29.12;66.99
54503;BME280;40411;50.090;21.954;2022-07-05T06:28:04;156160.16;;;28.27;64.58
54503;BME280;40411;50.090;21.954;2022-07-05T06:30:32;156228.75;;;28.54;63.89
54503;BME280;40411;50.090;21.954;2022-07-05T06:32:59;156377.56;;;29.13;60.90
54503;BME280;40411;50.090;21.954;2022-07-05T06:35:25;156221.00;;;28.51;59.91
54503;BME280;40411;50.090;21.954;2022-07-05T06:37:53;156551.06;;;29.81;56.09
54503;BME280;40411;50.090;21.954;2022-07-05T06:40:31;156416.41;;;29.28;58.20
54503;BME280;40411;50.090;21.954;2022-07-05T06:43:00;156566.56;;;29.88;55.01
54503;BME280;40411;50.090;21.954;2022-07-05T06:45:40;156503.09;;;29.62;55.61
54503;BME280;40411;50.090;21.954;2022-07-05T06:48:08;156499.19;;;29.61;55.53
54503;BME280;40411;50.090;21.954;2022-07-05T06:50:40;156567.84;;;29.88;51.79
54503;BME280;40411;50.090;21.954;2022-07-05T06:53:07;156714.19;;;30.46;51.45
54503;BME280;40411;50.090;21.954;2022-07-05T06:55:34;156684.44;;;30.34;53.33
54503;BME280;40411;50.090;21.954;2022-07-05T06:58:05;156693.47;;;30.38;50.12
54503;BME280;40411;50.090;21.954;2022-07-05T07:00:31;156949.97;;;31.39;48.42
54503;BME280;40411;50.090;21.954;2022-07-05T07:02:58;156843.72;;;30.97;48.79
54503;BME280;40411;50.090;21.954;2022-07-05T07:05:24;156996.59;;;31.57;46.07
54503;BME280;40411;50.090;21.954;2022-07-05T07:07:51;156879.97;;;31.11;44.85
54503;BME280;40411;50.090;21.954;2022-07-05T07:10:36;156978.47;;;31.50;45.36
54503;BME280;40411;50.090;21.954;2022-07-05T07:13:02;157078.19;;;31.90;42.63
54503;BME280;40411;50.090;21.954;2022-07-05T07:15:29;157403.63;;;33.18;41.97
54503;BME280;40411;50.090;21.954;2022-07-05T07:17:55;157267.50;;;32.64;42.42
54503;BME280;40411;50.090;21.954;2022-07-05T07:20:21;157285.66;;;32.71;41.63
54503;BME280;40411;50.090;21.954;2022-07-05T07:22:47;157441.25;;;33.33;38.33
54503;BME280;40411;50.090;21.954;2022-07-05T07:25:13;157381.59;;;33.09;38.13
54503;BME280;40411;50.090;21.954;2022-07-05T07:27:46;157450.31;;;33.36;40.04
54503;BME280;40411;50.090;21.954;2022-07-05T07:30:14;157401.03;;;33.17;38.52
54503;BME280;40411;50.090;21.954;2022-07-05T07:32:41;157804.47;;;34.76;38.04
54503;BME280;40411;50.090;21.954;2022-07-05T07:35:08;157366.03;;;33.03;37.02
54503;BME280;40411;50.090;21.954;2022-07-05T07:37:35;157183.19;;;32.31;40.79
54503;BME280;40411;50.090;21.954;2022-07-05T07:40:03;156971.97;;;31.48;40.97
54503;BME280;40411;50.090;21.954;2022-07-05T07:42:29;157019.91;;;31.67;42.25
54503;BME280;40411;50.090;21.954;2022-07-05T07:44:55;156904.59;;;31.21;41.58
54503;BME280;40411;50.090;21.954;2022-07-05T07:47:21;156630.00;;;30.13;45.00
54503;BME280;40411;50.090;21.954;2022-07-05T07:49:47;156939.56;;;31.35;43.19
54503;BME280;40411;50.090;21.954;2022-07-05T07:52:13;157196.16;;;32.36;42.12
54503;BME280;40411;50.090;21.954;2022-07-05T07:54:39;157380.31;;;33.09;39.91
54503;BME280;40411;50.090;21.954;2022-07-05T07:57:05;157445.09;;;33.34;40.29
54503;BME280;40411;50.090;21.954;2022-07-05T07:59:32;157821.38;;;34.83;35.26
54503;BME280;40411;50.090;21.954;2022-07-05T08:01:57;157574.84;;;33.86;38.70
54503;BME280;40411;50.090;21.954;2022-07-05T08:04:23;157266.19;;;32.64;40.49
54503;BME280;40411;50.090;21.954;2022-07-05T08:06:49;156916.22;;;31.26;43.75
54503;BME280;40411;50.090;21.954;2022-07-05T08:09:15;156837.25;;;30.94;46.13
54503;BME280;40411;50.090;21.954;2022-07-05T08:11:41;156576.91;;;29.92;47.50
54503;BME280;40411;50.090;21.954;2022-07-05T08:14:07;156424.16;;;29.31;49.05
54503;BME280;40411;50.090;21.954;2022-07-05T08:16:33;156472.00;;;29.50;48.01
54503;BME280;40411;50.090;21.954;2022-07-05T08:18:59;156393.09;;;29.19;48.93
54503;BME280;40411;50.090;21.954;2022-07-05T08:21:43;156472.00;;;29.50;49.65
54503;BME280;40411;50.090;21.954;2022-07-05T08:24:14;156384.03;;;29.15;46.59
54503;BME280;40411;50.090;21.954;2022-07-05T08:26:41;156444.88;;;29.39;49.77
54503;BME280;40411;50.090;21.954;2022-07-05T08:29:09;156299.91;;;28.82;47.18
54503;BME280;40411;50.090;21.954;2022-07-05T08:31:38;156456.50;;;29.44;48.95
54503;BME280;40411;50.090;21.954;2022-07-05T08:34:04;156464.25;;;29.47;49.78
54503;BME280;40411;50.090;21.954;2022-07-05T08:36:30;156501.81;;;29.62;50.93
54503;BME280;40411;50.090;21.954;2022-07-05T08:38:56;156447.44;;;29.40;47.92
54503;BME280;40411;50.090;21.954;2022-07-05T08:41:23;156450.03;;;29.42;46.77
54503;BME280;40411;50.090;21.954;2022-07-05T08:43:50;156429.31;;;29.33;48.12
54503;BME280;40411;50.090;21.954;2022-07-05T08:46:17;156358.16;;;29.05;50.48
54503;BME280;40411;50.090;21.954;2022-07-05T08:48:47;156583.38;;;29.94;46.45
54503;BME280;40411;50.090;21.954;2022-07-05T08:51:15;156626.09;;;30.11;46.60
54503;BME280;40411;50.090;21.954;2022-07-05T08:53:43;157130.09;;;32.10;40.25
54503;BME280;40411;50.090;21.954;2022-07-05T08:56:11;157439.97;;;33.32;39.51
54503;BME280;40411;50.090;21.954;2022-07-05T08:58:38;157557.97;;;33.79;36.79
54503;BME280;40411;50.090;21.954;2022-07-05T09:01:06;157572.22;;;33.85;34.74
54503;BME280;40411;50.090;21.954;2022-07-05T09:03:40;157270.09;;;32.65;38.87
54503;BME280;40411;50.090;21.954;2022-07-05T09:06:11;157187.13;;;32.33;39.30
54503;BME280;40411;50.090;21.954;2022-07-05T09:08:38;157139.16;;;32.14;39.92
54503;BME280;40411;50.090;21.954;2022-07-05T09:11:08;156961.63;;;31.44;42.65
54503;BME280;40411;50.090;21.954;2022-07-05T09:13:42;156926.63;;;31.30;43.51
54503;BME280;40411;50.090;21.954;2022-07-05T09:16:08;156815.22;;;30.86;41.59
54503;BME280;40411;50.090;21.954;2022-07-05T09:18:52;156879.97;;;31.11;43.52
54503;BME280;40411;50.090;21.954;2022-07-05T09:21:23;156688.28;;;30.36;49.23
54503;BME280;40411;50.090;21.954;2022-07-05T09:23:54;156773.72;;;30.69;46.13
54503;BME280;40411;50.090;21.954;2022-07-05T09:28:57;156584.66;;;29.95;47.15
54503;BME280;40411;50.090;21.954;2022-07-05T09:31:40;156732.28;;;30.53;47.49
54503;BME280;40411;50.090;21.954;2022-07-05T09:34:08;156843.72;;;30.97;47.76
54503;BME280;40411;50.090;21.954;2022-07-05T09:36:54;157040.66;;;31.75;43.45
54503;BME280;40411;50.090;21.954;2022-07-05T09:44:38;157167.66;;;32.25;41.96
54503;BME280;40411;50.090;21.954;2022-07-05T09:47:12;156965.50;;;31.45;43.49
54503;BME280;40411;50.090;21.954;2022-07-05T09:49:41;156786.69;;;30.75;43.67
54503;BME280;40411;50.090;21.954;2022-07-05T09:52:08;156793.16;;;30.77;45.35
54503;BME280;40411;50.090;21.954;2022-07-05T09:54:34;156751.72;;;30.61;48.13
54503;BME280;40411;50.090;21.954;2022-07-05T09:57:00;156755.63;;;30.62;47.50
54503;BME280;40411;50.090;21.954;2022-07-05T09:59:26;156649.44;;;30.20;47.19
54503;BME280;40411;50.090;21.954;2022-07-05T10:01:52;156709.00;;;30.44;48.04
54503;BME280;40411;50.090;21.954;2022-07-05T10:04:18;156784.13;;;30.73;45.65
54503;BME280;40411;50.090;21.954;2022-07-05T10:06:44;156681.81;;;30.33;46.31
54503;BME280;40411;50.090;21.954;2022-07-05T10:09:10;156693.47;;;30.38;46.09
54503;BME280;40411;50.090;21.954;2022-07-05T10:11:42;156709.00;;;30.44;47.12
54503;BME280;40411;50.090;21.954;2022-07-05T10:14:17;156500.53;;;29.61;48.52
54503;BME280;40411;50.090;21.954;2022-07-05T10:16:51;156495.34;;;29.59;50.56
54503;BME280;40411;50.090;21.954;2022-07-05T10:19:19;156530.34;;;29.73;49.63
54503;BME280;40411;50.090;21.954;2022-07-05T10:21:49;156588.56;;;29.96;49.50
54503;BME280;40411;50.090;21.954;2022-07-05T10:24:16;156513.47;;;29.67;49.86
54503;BME280;40411;50.090;21.954;2022-07-05T10:26:44;156582.09;;;29.94;49.11
54503;BME280;40411;50.090;21.954;2022-07-05T10:29:12;156610.56;;;30.05;48.76
54503;BME280;40411;50.090;21.954;2022-07-05T10:31:38;156601.53;;;30.01;48.37
54503;BME280;40411;50.090;21.954;2022-07-05T10:34:05;156687.00;;;30.35;49.55
54503;BME280;40411;50.090;21.954;2022-07-05T10:36:33;156707.72;;;30.43;50.19
54503;BME280;40411;50.090;21.954;2022-07-05T10:39:01;156544.56;;;29.79;51.74
54503;BME280;40411;50.090;21.954;2022-07-05T10:41:28;156250.75;;;28.63;54.25
54503;BME280;40411;50.090;21.954;2022-07-05T10:43:56;156268.88;;;28.70;55.17
54503;BME280;40411;50.090;21.954;2022-07-05T10:46:38;156286.94;;;28.77;54.99
54503;BME280;40411;50.090;21.954;2022-07-05T10:49:24;156285.66;;;28.77;56.07
54503;BME280;40411;50.090;21.954;2022-07-05T10:51:50;156323.16;;;28.91;53.92
54503;BME280;40411;50.090;21.954;2022-07-05T10:54:16;156214.53;;;28.48;55.58
54503;BME280;40411;50.090;21.954;2022-07-05T10:57:21;156169.22;;;28.31;55.77
54503;BME280;40411;50.090;21.954;2022-07-05T11:00:05;156157.56;;;28.26;55.66
54503;BME280;40411;50.090;21.954;2022-07-05T11:02:31;156170.50;;;28.31;55.20
54503;BME280;40411;50.090;21.954;2022-07-05T11:04:57;156208.06;;;28.46;56.20
54503;BME280;40411;50.090;21.954;2022-07-05T11:07:59;156161.44;;;28.27;57.24
54503;BME280;40411;50.090;21.954;2022-07-05T11:10:26;156129.13;;;28.15;55.56
54503;BME280;40411;50.090;21.954;2022-07-05T11:12:51;155948.03;;;27.43;56.55
54503;BME280;40411;50.090;21.954;2022-07-05T11:15:17;155911.84;;;27.29;55.66
54503;BME280;40411;50.090;21.954;2022-07-05T11:17:43;155861.41;;;27.09;56.99
54503;BME280;40411;50.090;21.954;2022-07-05T11:20:17;155960.97;;;27.48;55.78
54503;BME280;40411;50.090;21.954;2022-07-05T11:23:12;155878.19;;;27.15;56.79
54503;BME280;40411;50.090;21.954;2022-07-05T11:25:44;155919.59;;;27.32;55.96
54503;BME280;40411;50.090;21.954;2022-07-05T11:28:20;155904.09;;;27.26;56.68
54503;BME280;40411;50.090;21.954;2022-07-05T11:33:38;155926.06;;;27.34;56.46
54503;BME280;40411;50.090;21.954;2022-07-05T11:36:07;155878.19;;;27.15;58.35
54503;BME280;40411;50.090;21.954;2022-07-05T11:39:20;155875.59;;;27.14;57.59
54503;BME280;40411;50.090;21.954;2022-07-05T11:41:47;155823.88;;;26.94;58.67
54503;BME280;40411;50.090;21.954;2022-07-05T11:44:14;155826.50;;;26.95;58.27
54503;BME280;40411;50.090;21.954;2022-07-05T11:46:42;155717.91;;;26.52;58.17
54503;BME280;40411;50.090;21.954;2022-07-05T11:49:08;155667.47;;;26.32;60.47
54503;BME280;40411;50.090;21.954;2022-07-05T11:51:34;155642.94;;;26.22;61.22
54503;BME280;40411;50.090;21.954;2022-07-05T11:54:00;155657.16;;;26.28;61.16
54503;BME280;40411;50.090;21.954;2022-07-05T11:56:27;155524.06;;;25.75;63.28
54503;BME280;40411;50.090;21.954;2022-07-05T11:58:53;155487.91;;;25.61;65.55
54503;BME280;40411;50.090;21.954;2022-07-05T12:01:19;155370.38;;;25.14;69.28
54503;BME280;40411;50.090;21.954;2022-07-05T12:03:55;155286.38;;;24.81;71.08
54503;BME280;40411;50.090;21.954;2022-07-05T12:06:22;155264.44;;;24.72;72.61
54503;BME280;40411;50.090;21.954;2022-07-05T12:09:05;155168.88;;;24.35;74.21
54503;BME280;40411;50.090;21.954;2022-07-05T12:11:31;155146.91;;;24.26;75.09
54503;BME280;40411;50.090;21.954;2022-07-05T12:14:22;155201.19;;;24.47;77.13
54503;BME280;40411;50.090;21.954;2022-07-05T12:16:52;155149.53;;;24.27;74.85
54503;BME280;40411;50.090;21.954;2022-07-05T12:19:34;155149.53;;;24.27;75.50
54503;BME280;40411;50.090;21.954;2022-07-05T12:22:00;155180.50;;;24.39;77.21
54503;BME280;40411;50.090;21.954;2022-07-05T12:24:26;155144.34;;;24.25;76.63
54503;BME280;40411;50.090;21.954;2022-07-05T12:26:52;155131.44;;;24.20;79.14
54503;BME280;40411;50.090;21.954;2022-07-05T12:29:19;155203.75;;;24.48;81.57
54503;BME280;40411;50.090;21.954;2022-07-05T12:32:04;155238.63;;;24.62;79.53
54503;BME280;40411;50.090;21.954;2022-07-05T12:34:30;155238.63;;;24.62;78.21
54503;BME280;40411;50.090;21.954;2022-07-05T12:36:56;155256.72;;;24.69;77.13
54503;BME280;40411;50.090;21.954;2022-07-05T12:39:23;155163.72;;;24.33;80.85
54503;BME280;40411;50.090;21.954;2022-07-05T12:41:49;155115.97;;;24.14;79.00
54503;BME280;40411;50.090;21.954;2022-07-05T12:44:19;155156.00;;;24.29;77.65
54503;BME280;40411;50.090;21.954;2022-07-05T12:46:45;155166.28;;;24.34;77.02
54503;BME280;40411;50.090;21.954;2022-07-05T12:49:12;155217.97;;;24.54;77.74
54503;BME280;40411;50.090;21.954;2022-07-05T12:51:40;155260.56;;;24.71;76.30